Time;durP1;ratioP1;P1;durP2;ratioP2;P2;SDS_P1;SDS_P2;PMS_P1;PMS_P2;Temp;Humidity;BMP_temperature;BMP_pressure;BME280_temperature;BME280_humidity;BME280_pressure;Samples;Min_cycle;Max_cycle;Signal;HPM_P1;HPM_P2
2022/10/09 00:01:07;;;;;;;20.27;9.68;;;;;;;;;;5073101;28;20020;-63
2022/10/09 00:03:33;;;;;;;19.30;10.40;;;;;;;;;;5057842;28;20028;-55
2022/10/09 00:05:59;;;;;;;22.80;10.10;;;;;;;;;;5057666;28;20294;-62
2022/10/09 00:08:25;;;;;;;22.17;10.13;;;;;;;;;;5073450;28;20384;-61
2022/10/09 00:10:51;;;;;;;20.65;10.50;;;;;;;;;;5071917;28;20491;-62
2022/10/09 00:13:18;;;;;;;19.60;9.50;;;;;;;;;;5071279;28;20101;-56
2022/10/09 00:15:45;;;;;;;20.52;10.40;;;;;;;;;;5071799;28;20039;-60
2022/10/09 00:18:12;;;;;;;20.65;10.40;;;;;;;;;;5071665;28;20024;-59
2022/10/09 00:20:38;;;;;;;22.52;9.82;;;;;;;;;;5071673;28;20040;-60
2022/10/09 00:23:05;;;;;;;21.63;9.52;;;;;;;;;;5071374;28;20419;-58
2022/10/09 00:25:31;;;;;;;21.02;10.77;;;;;;;;;;5071571;28;20028;-59
2022/10/09 00:27:58;;;;;;;23.20;9.82;;;;;;;;;;5071657;28;20162;-59
2022/10/09 00:30:24;;;;;;;23.17;10.20;;;;;;;;;;5071411;28;20029;-60
2022/10/09 00:32:50;;;;;;;19.63;9.98;;;;;;;;;;5071443;28;20048;-60
2022/10/09 00:35:16;;;;;;;19.48;9.75;;;;;;;;;;5071456;28;20028;-60
2022/10/09 00:37:42;;;;;;;22.92;9.52;;;;;;;;;;5072555;28;20020;-54
2022/10/09 00:40:08;;;;;;;21.60;9.77;;;;;;;;;;5071898;28;20020;-58
2022/10/09 00:42:34;;;;;;;24.80;10.57;;;;;;;;;;5071339;28;20530;-58
2022/10/09 00:45:01;;;;;;;20.25;10.70;;;;;;;;;;5071126;28;20024;-58
2022/10/09 00:47:27;;;;;;;23.50;10.88;;;;;;;;;;5071255;28;20094;-60
2022/10/09 00:49:56;;;;;;;21.55;9.82;;;;;;;;;;5071356;28;20031;-58
2022/10/09 00:52:22;;;;;;;;;;;;;;;;;;5071773;28;20542;-59
2022/10/09 00:54:48;;;;;;;20.60;10.73;;;;;;;;;;5072112;28;19906;-58
2022/10/09 00:57:14;;;;;;;19.00;9.60;;;;;;;;;;5074946;28;20434;-57
2022/10/09 00:59:40;;;;;;;20.63;9.00;;;;;;;;;;5074889;28;20050;-56
2022/10/09 01:02:06;;;;;;;23.45;10.45;;;;;;;;;;5074715;28;20158;-60
2022/10/09 01:04:33;;;;;;;21.77;9.75;;;;;;;;;;5074597;28;20446;-60
2022/10/09 01:07:16;;;;;;;22.15;10.00;;;;;;;;;;5074704;28;20056;-60
2022/10/09 01:10:05;;;;;;;20.33;9.77;;;;;;;;;;5074731;28;20033;-56
2022/10/09 01:12:50;;;;;;;22.02;9.85;;;;;;;;;;5048549;28;20078;-59
2022/10/09 01:15:27;;;;;;;21.95;10.00;;;;;;;;;;5074365;28;20025;-58
2022/10/09 01:17:57;;;;;;;22.00;9.90;;;;;;;;;;5056463;28;20025;-57
2022/10/09 01:20:35;;;;;;;20.02;9.48;;;;;;;;;;5074459;28;20024;-59
2022/10/09 01:23:01;;;;;;;21.88;9.75;;;;;;;;;;5074317;28;20023;-60
2022/10/09 01:25:44;;;;;;;20.27;10.13;;;;;;;;;;5056458;28;20029;-56
2022/10/09 01:28:10;;;;;;;21.35;10.60;;;;;;;;;;5074445;28;20032;-55
2022/10/09 01:30:36;;;;;;;21.08;10.13;;;;;;;;;;5056212;28;20029;-57
2022/10/09 01:33:03;;;;;;;19.73;10.38;;;;;;;;;;5073868;28;20028;-57
2022/10/09 01:35:29;;;;;;;22.63;10.77;;;;;;;;;;5074316;28;20082;-57
2022/10/09 01:37:55;;;;;;;19.92;10.38;;;;;;;;;;5074259;28;20055;-60
2022/10/09 01:40:23;;;;;;;21.40;10.23;;;;;;;;;;5056136;28;20035;-62
2022/10/09 01:42:48;;;;;;;22.83;10.52;;;;;;;;;;5074163;28;20036;-57
2022/10/09 01:45:15;;;;;;;20.13;10.77;;;;;;;;;;5073907;28;20029;-60
2022/10/09 01:47:41;;;;;;;26.42;11.55;;;;;;;;;;5056290;28;20043;-60
2022/10/09 01:50:11;;;;;;;20.17;10.55;;;;;;;;;;5074007;28;20474;-60
2022/10/09 01:52:47;;;;;;;21.75;10.75;;;;;;;;;;5073730;28;20111;-60
2022/10/09 01:55:31;;;;;;;19.70;10.57;;;;;;;;;;5073671;28;20032;-58
2022/10/09 01:58:10;;;;;;;22.65;10.68;;;;;;;;;;5073887;28;20046;-60
2022/10/09 02:00:39;;;;;;;19.38;10.85;;;;;;;;;;5073949;28;20542;-58
2022/10/09 02:03:07;;;;;;;22.02;10.80;;;;;;;;;;5073610;28;20039;-60
2022/10/09 02:05:33;;;;;;;25.45;11.15;;;;;;;;;;5073396;28;20078;-56
2022/10/09 02:07:59;;;;;;;23.58;10.98;;;;;;;;;;5055240;28;20032;-60
2022/10/09 02:10:25;;;;;;;23.40;12.25;;;;;;;;;;5073528;28;20036;-58
2022/10/09 02:12:56;;;;;;;25.65;11.77;;;;;;;;;;5055648;28;20081;-59
2022/10/09 02:15:24;;;;;;;20.95;10.88;;;;;;;;;;5073235;28;20449;-59
2022/10/09 02:17:53;;;;;;;21.63;11.48;;;;;;;;;;5073445;28;20025;-55
2022/10/09 02:20:19;;;;;;;;;;;;;;;;;;5074688;28;20048;-60
2022/10/09 02:22:46;;;;;;;23.08;10.40;;;;;;;;;;5073628;28;19958;-58
2022/10/09 02:25:12;;;;;;;20.40;10.65;;;;;;;;;;5073107;28;20392;-59
2022/10/09 02:27:39;;;;;;;22.40;11.73;;;;;;;;;;5073148;28;20027;-59
2022/10/09 02:30:06;;;;;;;21.23;10.35;;;;;;;;;;5073117;28;20039;-58
2022/10/09 02:32:32;;;;;;;20.75;11.18;;;;;;;;;;5072948;28;20476;-57
2022/10/09 02:34:58;;;;;;;28.92;12.57;;;;;;;;;;5054885;28;20116;-59
2022/10/09 02:37:24;;;;;;;24.40;11.32;;;;;;;;;;5055021;28;20020;-59
2022/10/09 02:39:50;;;;;;;23.63;11.50;;;;;;;;;;5072977;28;20024;-58
2022/10/09 02:42:16;;;;;;;22.98;10.77;;;;;;;;;;5072752;28;20039;-56
2022/10/09 02:44:42;;;;;;;21.27;10.98;;;;;;;;;;5072538;28;20035;-58
2022/10/09 02:47:08;;;;;;;25.67;11.52;;;;;;;;;;5072756;28;20024;-61
2022/10/09 02:49:34;;;;;;;19.90;10.93;;;;;;;;;;5054649;28;20111;-58
2022/10/09 02:52:00;;;;;;;22.92;10.93;;;;;;;;;;5072391;28;20024;-61
2022/10/09 02:54:26;;;;;;;21.98;10.95;;;;;;;;;;5072168;28;20025;-62
2022/10/09 02:56:52;;;;;;;23.92;11.40;;;;;;;;;;5072433;28;20046;-62
2022/10/09 02:59:18;;;;;;;19.88;10.30;;;;;;;;;;5072553;28;20024;-59
2022/10/09 03:01:44;;;;;;;19.52;10.65;;;;;;;;;;5054623;28;20020;-57
2022/10/09 03:04:10;;;;;;;27.00;11.45;;;;;;;;;;5072248;28;20020;-59
2022/10/09 03:06:36;;;;;;;23.42;11.27;;;;;;;;;;5072464;28;20048;-58
2022/10/09 03:09:02;;;;;;;25.73;12.73;;;;;;;;;;5072426;28;20036;-60
2022/10/09 03:11:28;;;;;;;26.70;11.50;;;;;;;;;;5072070;28;20032;-57
2022/10/09 03:13:54;;;;;;;25.05;12.55;;;;;;;;;;5054190;28;20028;-58
2022/10/09 03:16:22;;;;;;;29.63;13.18;;;;;;;;;;5072228;28;20082;-58
2022/10/09 03:18:48;;;;;;;28.30;13.13;;;;;;;;;;5072013;28;20484;-57
2022/10/09 03:21:16;;;;;;;23.58;11.68;;;;;;;;;;5072232;28;20040;-56
2022/10/09 03:23:43;;;;;;;24.10;11.88;;;;;;;;;;5071972;28;20400;-57
2022/10/09 03:26:10;;;;;;;21.65;11.20;;;;;;;;;;5069641;28;20036;-59
2022/10/09 03:28:36;;;;;;;26.20;12.48;;;;;;;;;;5071904;28;20499;-57
2022/10/09 03:31:03;;;;;;;27.42;12.60;;;;;;;;;;5053970;28;20488;-60
2022/10/09 03:33:29;;;;;;;22.00;12.13;;;;;;;;;;5072358;28;20378;-60
2022/10/09 03:35:56;;;;;;;23.10;10.75;;;;;;;;;;5074843;28;20068;-61
2022/10/09 03:38:22;;;;;;;22.67;10.98;;;;;;;;;;5076949;28;20032;-61
2022/10/09 03:40:48;;;;;;;23.65;12.48;;;;;;;;;;5078008;28;20036;-60
2022/10/09 03:43:14;;;;;;;24.30;11.98;;;;;;;;;;5073559;28;20020;-56
2022/10/09 03:45:41;;;;;;;20.90;10.73;;;;;;;;;;5072248;28;20085;-56
2022/10/09 03:48:07;;;;;;;22.73;11.52;;;;;;;;;;5053903;28;20089;-59
2022/10/09 03:50:33;;;;;;;22.10;11.05;;;;;;;;;;5053656;28;20033;-57
2022/10/09 03:52:59;;;;;;;24.85;11.68;;;;;;;;;;5071631;28;20021;-54
2022/10/09 03:55:25;;;;;;;21.05;11.55;;;;;;;;;;5053530;28;20025;-58
2022/10/09 03:57:51;;;;;;;28.67;11.93;;;;;;;;;;5071464;28;20468;-57
2022/10/09 04:00:17;;;;;;;22.60;12.90;;;;;;;;;;5071705;28;20025;-58
2022/10/09 04:02:43;;;;;;;22.33;11.30;;;;;;;;;;5071686;28;20051;-62
2022/10/09 04:05:09;;;;;;;23.63;11.73;;;;;;;;;;5071537;28;20029;-60
2022/10/09 04:07:35;;;;;;;22.80;12.30;;;;;;;;;;5071696;28;20020;-60
2022/10/09 04:10:01;;;;;;;23.88;11.98;;;;;;;;;;5071790;28;20043;-58
2022/10/09 04:12:27;;;;;;;26.05;12.85;;;;;;;;;;5071319;28;20088;-60
2022/10/09 04:14:53;;;;;;;21.80;12.13;;;;;;;;;;5053517;28;20380;-59
2022/10/09 04:17:19;;;;;;;23.23;12.43;;;;;;;;;;5071441;28;20074;-56
2022/10/09 04:19:45;;;;;;;21.50;11.70;;;;;;;;;;5071407;28;20027;-56
2022/10/09 04:22:11;;;;;;;24.52;12.80;;;;;;;;;;5071362;28;20361;-56
2022/10/09 04:24:37;;;;;;;23.50;11.98;;;;;;;;;;5071142;28;20103;-58
2022/10/09 04:27:03;;;;;;;25.40;13.85;;;;;;;;;;5062559;28;20036;-58
2022/10/09 04:29:29;;;;;;;24.60;12.63;;;;;;;;;;5052001;28;20037;-56
2022/10/09 04:31:55;;;;;;;25.60;12.45;;;;;;;;;;5055203;28;20043;-58
2022/10/09 04:34:21;;;;;;;31.50;15.13;;;;;;;;;;5036781;28;20021;-59
2022/10/09 04:36:47;;;;;;;28.50;14.65;;;;;;;;;;5037480;28;20491;-59
2022/10/09 04:39:13;;;;;;;25.05;13.27;;;;;;;;;;5037214;28;20032;-55
2022/10/09 04:41:39;;;;;;;27.52;13.63;;;;;;;;;;5055018;28;20065;-59
2022/10/09 04:44:05;;;;;;;24.30;12.77;;;;;;;;;;5054870;28;20392;-59
2022/10/09 04:46:31;;;;;;;24.02;12.43;;;;;;;;;;5054889;28;20047;-58
2022/10/09 04:48:57;;;;;;;20.38;11.55;;;;;;;;;;5054471;28;20465;-59
2022/10/09 04:51:23;;;;;;;21.70;12.20;;;;;;;;;;5054629;28;20024;-54
2022/10/09 04:53:49;;;;;;;24.50;12.00;;;;;;;;;;5054662;28;20430;-58
2022/10/09 04:56:17;;;;;;;23.48;11.60;;;;;;;;;;5037151;28;20087;-59
2022/10/09 04:58:43;;;;;;;23.20;12.75;;;;;;;;;;5054727;28;20036;-57
2022/10/09 05:01:14;;;;;;;26.40;12.27;;;;;;;;;;5062972;28;20064;-56
2022/10/09 05:03:40;;;;;;;27.67;12.93;;;;;;;;;;5074514;28;20029;-58
2022/10/09 05:06:07;;;;;;;24.08;12.00;;;;;;;;;;5074371;28;20024;-58
2022/10/09 05:08:33;;;;;;;23.38;12.10;;;;;;;;;;5057844;28;20090;-62
2022/10/09 05:11:00;;;;;;;22.63;12.23;;;;;;;;;;5075369;28;20020;-59
2022/10/09 05:13:28;;;;;;;23.00;11.88;;;;;;;;;;5058013;28;20028;-53
2022/10/09 05:15:54;;;;;;;21.15;11.18;;;;;;;;;;5057260;28;20020;-52
2022/10/09 05:18:20;;;;;;;24.77;12.18;;;;;;;;;;5075045;28;20388;-58
2022/10/09 05:20:46;;;;;;;20.00;11.30;;;;;;;;;;5075380;28;20090;-59
2022/10/09 05:23:12;;;;;;;25.05;12.15;;;;;;;;;;5075383;28;20028;-62
2022/10/09 05:25:38;;;;;;;24.27;12.05;;;;;;;;;;5075593;28;20024;-57
2022/10/09 05:28:05;;;;;;;22.92;13.30;;;;;;;;;;5059010;28;20079;-61
2022/10/09 05:30:31;;;;;;;22.08;11.32;;;;;;;;;;5054525;28;20476;-61
2022/10/09 05:32:57;;;;;;;22.17;11.40;;;;;;;;;;5036322;28;20063;-58
2022/10/09 05:35:23;;;;;;;21.63;12.10;;;;;;;;;;5054005;28;20025;-56
2022/10/09 05:37:49;;;;;;;26.00;15.60;;;;;;;;;;5054192;28;20083;-58
2022/10/09 05:40:15;;;;;;;24.17;13.68;;;;;;;;;;5036242;28;20018;-59
2022/10/09 05:42:41;;;;;;;30.00;15.23;;;;;;;;;;5053382;28;20021;-55
2022/10/09 05:45:07;;;;;;;29.60;14.00;;;;;;;;;;5053452;28;20086;-60
2022/10/09 05:47:33;;;;;;;27.00;13.63;;;;;;;;;;5053798;28;20025;-58
2022/10/09 05:49:59;;;;;;;26.98;13.32;;;;;;;;;;5053535;28;20044;-57
2022/10/09 05:52:25;;;;;;;21.13;11.48;;;;;;;;;;5035491;28;20071;-59
2022/10/09 05:54:51;;;;;;;27.88;14.10;;;;;;;;;;5053446;28;20050;-58
2022/10/09 05:57:17;;;;;;;32.58;17.70;;;;;;;;;;5053623;28;20025;-60
2022/10/09 05:59:43;;;;;;;26.17;14.38;;;;;;;;;;5053613;28;20048;-56
2022/10/09 06:02:09;;;;;;;24.75;13.18;;;;;;;;;;5053489;28;20036;-56
2022/10/09 06:04:35;;;;;;;26.08;14.57;;;;;;;;;;5035383;28;20025;-59
2022/10/09 06:07:01;;;;;;;27.45;13.55;;;;;;;;;;5053442;28;20025;-54
2022/10/09 06:09:27;;;;;;;23.42;13.07;;;;;;;;;;5035519;28;20550;-58
2022/10/09 06:11:55;;;;;;;24.40;13.40;;;;;;;;;;5053176;28;20037;-54
2022/10/09 06:14:23;;;;;;;21.65;12.52;;;;;;;;;;5035535;28;20428;-57
2022/10/09 06:16:49;;;;;;;24.33;12.50;;;;;;;;;;5053297;28;20112;-54
2022/10/09 06:19:16;;;;;;;24.83;12.95;;;;;;;;;;5053048;28;20439;-58
2022/10/09 06:21:42;;;;;;;24.27;13.50;;;;;;;;;;5053002;28;20052;-56
2022/10/09 06:24:14;;;;;;;25.58;14.60;;;;;;;;;;5052502;28;20035;-61
2022/10/09 06:26:40;;;;;;;27.27;14.93;;;;;;;;;;5052921;28;20067;-55
2022/10/09 06:29:06;;;;;;;22.15;13.32;;;;;;;;;;5052881;28;20025;-60
2022/10/09 06:31:32;;;;;;;28.10;13.20;;;;;;;;;;5052701;28;20439;-58
2022/10/09 06:33:59;;;;;;;23.83;13.77;;;;;;;;;;5052598;28;20025;-56
2022/10/09 06:36:27;;;;;;;24.17;14.13;;;;;;;;;;5052696;28;20032;-58
2022/10/09 06:38:53;;;;;;;24.60;13.80;;;;;;;;;;5052925;28;20021;-58
2022/10/09 06:41:21;;;;;;;24.05;13.95;;;;;;;;;;5052834;28;20083;-55
2022/10/09 06:43:49;;;;;;;27.73;13.25;;;;;;;;;;5052565;28;20029;-64
2022/10/09 06:46:15;;;;;;;24.70;14.05;;;;;;;;;;5052892;28;20405;-57
2022/10/09 06:48:41;;;;;;;25.85;16.52;;;;;;;;;;5034873;28;20028;-50
2022/10/09 06:51:11;;;;;;;24.52;14.40;;;;;;;;;;5052578;28;20425;-59
2022/10/09 06:53:38;;;;;;;27.95;15.57;;;;;;;;;;5051927;28;20435;-61
2022/10/09 06:56:04;;;;;;;27.08;16.10;;;;;;;;;;5052754;28;20017;-61
2022/10/09 06:58:30;;;;;;;24.20;15.23;;;;;;;;;;5052645;28;20452;-62
2022/10/09 07:01:02;;;;;;;24.55;15.20;;;;;;;;;;5052574;28;20053;-62
2022/10/09 07:03:28;;;;;;;23.95;15.88;;;;;;;;;;5034339;28;20025;-60
2022/10/09 07:06:04;;;;;;;24.23;14.15;;;;;;;;;;5052016;28;20466;-62
2022/10/09 07:08:31;;;;;;;26.17;15.00;;;;;;;;;;5052126;28;20025;-62
2022/10/09 07:10:57;;;;;;;24.23;15.00;;;;;;;;;;5052424;28;20033;-61
2022/10/09 07:13:23;;;;;;;22.05;14.60;;;;;;;;;;5034125;28;20123;-62
2022/10/09 07:15:49;;;;;;;23.02;14.45;;;;;;;;;;5052027;28;20017;-61
2022/10/09 07:18:15;;;;;;;27.67;17.85;;;;;;;;;;5034400;28;20025;-62
2022/10/09 07:20:41;;;;;;;22.92;14.80;;;;;;;;;;5051887;28;20108;-62
2022/10/09 07:23:07;;;;;;;22.15;14.23;;;;;;;;;;5051841;28;20024;-61
2022/10/09 07:25:37;;;;;;;22.05;14.68;;;;;;;;;;5052024;28;20389;-58
2022/10/09 07:28:03;;;;;;;25.95;16.08;;;;;;;;;;5052088;28;20483;-62
2022/10/09 07:30:29;;;;;;;24.83;14.52;;;;;;;;;;5052203;28;20036;-61
2022/10/09 07:32:55;;;;;;;24.83;14.80;;;;;;;;;;5034102;28;20130;-62
2022/10/09 07:35:21;;;;;;;26.40;14.68;;;;;;;;;;5033900;28;20472;-61
2022/10/09 07:37:47;;;;;;;23.70;14.48;;;;;;;;;;5051997;28;20021;-61
2022/10/09 07:40:13;;;;;;;23.60;13.82;;;;;;;;;;5051773;28;20075;-63
2022/10/09 07:42:39;;;;;;;21.65;14.50;;;;;;;;;;5051665;28;20107;-63
2022/10/09 07:45:05;;;;;;;21.17;13.40;;;;;;;;;;5051685;28;20048;-57
2022/10/09 07:47:31;;;;;;;19.40;12.80;;;;;;;;;;5051625;28;20074;-56
2022/10/09 07:49:57;;;;;;;21.63;13.05;;;;;;;;;;5051645;28;20136;-55
2022/10/09 07:52:23;;;;;;;21.58;13.60;;;;;;;;;;5051620;28;20017;-59
2022/10/09 07:54:49;;;;;;;23.30;14.45;;;;;;;;;;5033754;28;20453;-60
2022/10/09 07:57:15;;;;;;;23.17;13.18;;;;;;;;;;5051778;28;20079;-58
2022/10/09 07:59:41;;;;;;;21.65;12.77;;;;;;;;;;5051764;28;20032;-60
2022/10/09 08:02:08;;;;;;;21.15;12.10;;;;;;;;;;5033603;28;20064;-56
2022/10/09 08:04:35;;;;;;;21.13;11.77;;;;;;;;;;5051881;28;20489;-59
2022/10/09 08:07:02;;;;;;;19.07;12.00;;;;;;;;;;5055727;28;20472;-60
2022/10/09 08:09:27;;;;;;;22.42;11.82;;;;;;;;;;5055563;28;20060;-61
2022/10/09 08:11:53;;;;;;;19.95;12.10;;;;;;;;;;5055338;28;20060;-60
2022/10/09 08:14:19;;;;;;;19.52;12.07;;;;;;;;;;5055211;28;20112;-60
2022/10/09 08:16:45;;;;;;;25.75;12.40;;;;;;;;;;5055519;28;20075;-60
2022/10/09 08:19:12;;;;;;;20.90;12.63;;;;;;;;;;5055423;28;20040;-57
2022/10/09 08:21:38;;;;;;;20.10;11.80;;;;;;;;;;5055480;28;20496;-59
2022/10/09 08:24:04;;;;;;;19.15;12.05;;;;;;;;;;5054837;28;20036;-56
2022/10/09 08:26:30;;;;;;;22.10;12.20;;;;;;;;;;5055233;28;20376;-58
2022/10/09 08:28:58;;;;;;;22.08;12.40;;;;;;;;;;5055237;28;20120;-60
2022/10/09 08:31:24;;;;;;;19.03;11.60;;;;;;;;;;5055053;28;20083;-59
2022/10/09 08:33:54;;;;;;;20.30;11.82;;;;;;;;;;5036963;28;20048;-56
2022/10/09 08:36:20;;;;;;;19.27;10.90;;;;;;;;;;5065730;28;20094;-60
2022/10/09 08:38:46;;;;;;;19.10;10.90;;;;;;;;;;5074727;28;20027;-57
2022/10/09 08:41:18;;;;;;;19.88;11.18;;;;;;;;;;5075067;28;20081;-59
2022/10/09 08:43:46;;;;;;;22.15;11.80;;;;;;;;;;5073975;28;20025;-60
2022/10/09 08:46:20;;;;;;;20.13;11.48;;;;;;;;;;5056195;28;20024;-59
2022/10/09 08:48:46;;;;;;;20.55;11.38;;;;;;;;;;5074497;28;20036;-60
2022/10/09 08:51:35;;;;;;;18.17;10.25;;;;;;;;;;5074616;28;20020;-62
2022/10/09 08:54:03;;;;;;;18.63;10.75;;;;;;;;;;5074496;28;20400;-60
2022/10/09 08:56:29;;;;;;;18.58;11.30;;;;;;;;;;5073969;28;20052;-57
2022/10/09 08:58:55;;;;;;;20.65;10.90;;;;;;;;;;5074646;28;20028;-61
2022/10/09 09:01:39;;;;;;;19.30;10.77;;;;;;;;;;5074116;28;20043;-60
2022/10/09 09:04:08;;;;;;;19.52;10.23;;;;;;;;;;5073794;28;20036;-57
2022/10/09 09:06:37;;;;;;;19.92;11.25;;;;;;;;;;5074028;28;20036;-59
2022/10/09 09:09:22;;;;;;;17.83;10.57;;;;;;;;;;5056289;28;20028;-61
2022/10/09 09:12:00;;;;;;;19.63;10.13;;;;;;;;;;5056482;28;20115;-63
2022/10/09 09:14:44;;;;;;;18.40;10.20;;;;;;;;;;5074256;28;20100;-60
2022/10/09 09:17:13;;;;;;;18.25;10.60;;;;;;;;;;5056155;28;20025;-61
2022/10/09 09:20:06;;;;;;;20.92;11.05;;;;;;;;;;5074093;28;20024;-63
2022/10/09 09:22:32;;;;;;;18.23;10.15;;;;;;;;;;5053541;28;20094;-57
2022/10/09 09:24:59;;;;;;;19.70;10.07;;;;;;;;;;5073872;28;20024;-63
2022/10/09 09:27:31;;;;;;;20.77;9.95;;;;;;;;;;5045800;28;20040;-61
2022/10/09 09:30:12;;;;;;;16.85;9.88;;;;;;;;;;5054107;28;20621;-60
2022/10/09 09:32:51;;;;;;;18.00;10.10;;;;;;;;;;5054077;28;20024;-63
2022/10/09 09:35:29;;;;;;;20.48;9.90;;;;;;;;;;5054209;28;20036;-60
2022/10/09 09:37:55;;;;;;;18.88;9.85;;;;;;;;;;5053929;28;20549;-53
2022/10/09 09:40:22;;;;;;;20.13;10.43;;;;;;;;;;5045770;28;20042;-61
2022/10/09 09:42:49;;;;;;;17.95;9.85;;;;;;;;;;5073446;28;20035;-61
2022/10/09 09:45:20;;;;;;;17.35;9.68;;;;;;;;;;5073122;28;20443;-60
2022/10/09 09:47:49;;;;;;;18.23;10.18;;;;;;;;;;5055272;28;20701;-61
2022/10/09 09:50:15;;;;;;;20.55;9.50;;;;;;;;;;5073800;28;20548;-58
2022/10/09 09:52:45;;;;;;;18.95;10.48;;;;;;;;;;5073691;28;20480;-60
2022/10/09 09:55:26;;;;;;;17.80;9.40;;;;;;;;;;5055408;28;20361;-61
2022/10/09 09:57:58;;;;;;;20.48;10.32;;;;;;;;;;5055545;28;20123;-61
2022/10/09 10:00:24;;;;;;;16.88;9.48;;;;;;;;;;5073829;28;20021;-62
2022/10/09 10:03:01;;;;;;;17.15;10.38;;;;;;;;;;5073005;28;20365;-60
2022/10/09 10:05:27;;;;;;;16.63;8.98;;;;;;;;;;5055720;28;20028;-61
2022/10/09 10:07:53;;;;;;;18.27;9.65;;;;;;;;;;5073273;28;20105;-61
2022/10/09 10:10:21;;;;;;;20.88;9.70;;;;;;;;;;5073589;28;20021;-61
2022/10/09 10:12:58;;;;;;;16.88;9.10;;;;;;;;;;5073035;28;20107;-61
2022/10/09 10:15:28;;;;;;;19.30;10.25;;;;;;;;;;5073147;28;20073;-62
2022/10/09 10:17:57;;;;;;;18.88;9.98;;;;;;;;;;5055190;28;20460;-59
2022/10/09 10:20:23;;;;;;;21.55;10.32;;;;;;;;;;5055457;28;20032;-61
2022/10/09 10:22:53;;;;;;;17.52;8.82;;;;;;;;;;5073106;28;20035;-61
2022/10/09 10:25:21;;;;;;;19.13;9.52;;;;;;;;;;5072690;28;20024;-60
2022/10/09 10:27:49;;;;;;;18.33;9.38;;;;;;;;;;5053938;28;20211;-61
2022/10/09 10:30:16;;;;;;;17.25;9.32;;;;;;;;;;5055207;28;20036;-59
2022/10/09 10:33:00;;;;;;;17.85;9.35;;;;;;;;;;5072996;28;20029;-61
2022/10/09 10:35:27;;;;;;;16.88;9.60;;;;;;;;;;5072923;28;20066;-63
2022/10/09 10:37:56;;;;;;;17.23;9.32;;;;;;;;;;5054851;28;20024;-63
2022/10/09 10:40:25;;;;;;;20.00;9.65;;;;;;;;;;5055082;28;20470;-62
2022/10/09 10:42:54;;;;;;;19.45;10.07;;;;;;;;;;5072619;28;20440;-60
2022/10/09 10:45:25;;;;;;;16.80;8.88;;;;;;;;;;5072750;28;20028;-61
2022/10/09 10:47:53;;;;;;;17.50;9.15;;;;;;;;;;5055004;28;20115;-61
2022/10/09 10:50:19;;;;;;;17.80;9.55;;;;;;;;;;5072628;28;20635;-59
2022/10/09 10:52:48;;;;;;;17.20;8.90;;;;;;;;;;5054685;28;20040;-61
2022/10/09 10:55:21;;;;;;;23.55;9.18;;;;;;;;;;5072810;28;20464;-61
2022/10/09 10:57:55;;;;;;;18.40;9.05;;;;;;;;;;5072693;28;20024;-61
2022/10/09 11:00:21;;;;;;;17.58;9.90;;;;;;;;;;5072537;28;20020;-62
2022/10/09 11:03:06;;;;;;;20.27;10.50;;;;;;;;;;5072116;28;20040;-63
2022/10/09 11:06:05;;;;;;;16.65;9.90;;;;;;;;;;5072400;28;20423;-63
2022/10/09 11:08:31;;;;;;;;;;;;;;;;;;5019007;28;20047;-63
2022/10/09 11:11:02;;;;;;;19.08;10.73;;;;;;;;;;5074760;28;19916;-63
2022/10/09 11:13:31;;;;;;;19.08;10.65;;;;;;;;;;5090518;22;20567;-65
2022/10/09 11:16:18;;;;;;;17.63;10.15;;;;;;;;;;5052267;28;20033;-65
2022/10/09 11:18:56;;;;;;;16.35;10.38;;;;;;;;;;5034507;28;20021;-66
2022/10/09 11:21:22;;;;;;;18.20;10.63;;;;;;;;;;5034521;28;20388;-67
2022/10/09 11:24:04;;;;;;;19.85;11.32;;;;;;;;;;5051898;28;20083;-65
2022/10/09 11:26:40;;;;;;;16.77;10.88;;;;;;;;;;5051580;28;20048;-66
2022/10/09 11:29:15;;;;;;;16.15;10.88;;;;;;;;;;5052298;28;20025;-65
2022/10/09 11:32:02;;;;;;;17.30;10.60;;;;;;;;;;5052474;28;20109;-65
2022/10/09 11:34:39;;;;;;;18.37;11.53;;;;;;;;;;5033972;28;20051;-66
2022/10/09 11:37:14;;;;;;;17.50;10.93;;;;;;;;;;5033614;28;20108;-66
2022/10/09 11:39:40;;;;;;;18.40;11.63;;;;;;;;;;5034130;28;20263;-65
2022/10/09 11:42:09;;;;;;;16.83;10.85;;;;;;;;;;5051902;28;20396;-66
2022/10/09 11:44:43;;;;;;;17.50;10.85;;;;;;;;;;5051767;28;20086;-67
2022/10/09 11:47:31;;;;;;;16.75;10.70;;;;;;;;;;5034008;28;20021;-64
2022/10/09 11:50:03;;;;;;;17.40;11.40;;;;;;;;;;5051727;28;20021;-66
2022/10/09 11:52:42;;;;;;;17.27;10.98;;;;;;;;;;5052049;28;20029;-65
2022/10/09 11:55:24;;;;;;;17.05;10.90;;;;;;;;;;5034557;28;20017;-67
2022/10/09 11:57:50;;;;;;;18.10;10.82;;;;;;;;;;5051530;28;20021;-66
2022/10/09 12:00:27;;;;;;;16.35;10.70;;;;;;;;;;5051846;28;20385;-67
2022/10/09 12:02:59;;;;;;;17.15;11.10;;;;;;;;;;5034307;28;20025;-66
2022/10/09 12:05:34;;;;;;;19.00;13.00;;;;;;;;;;5052007;28;20480;-67
2022/10/09 12:08:07;;;;;;;17.63;11.32;;;;;;;;;;5052415;28;20033;-67
2022/10/09 12:10:33;;;;;;;16.25;10.90;;;;;;;;;;5034143;28;20021;-68
2022/10/09 12:13:01;;;;;;;17.40;11.13;;;;;;;;;;5052058;28;20044;-66
2022/10/09 12:15:27;;;;;;;;;;;;;;;;;;5052717;28;20487;-64
2022/10/09 12:17:53;;;;;;;16.77;11.02;;;;;;;;;;5034506;28;19904;-67
2022/10/09 12:20:21;;;;;;;17.40;10.95;;;;;;;;;;5052062;28;20388;-67
2022/10/09 12:22:51;;;;;;;16.58;11.32;;;;;;;;;;5052450;28;20025;-67
2022/10/09 12:25:26;;;;;;;17.20;11.32;;;;;;;;;;5034237;28;20025;-65
2022/10/09 12:27:53;;;;;;;17.90;11.63;;;;;;;;;;5052376;28;20171;-65
2022/10/09 12:30:20;;;;;;;16.35;11.00;;;;;;;;;;5052534;28;20036;-66
2022/10/09 12:33:01;;;;;;;18.25;11.60;;;;;;;;;;5052278;28;20041;-65
2022/10/09 12:35:35;;;;;;;15.90;10.82;;;;;;;;;;5052236;28;20108;-65
2022/10/09 12:38:01;;;;;;;17.67;11.43;;;;;;;;;;5052371;28;20021;-65
2022/10/09 12:40:29;;;;;;;15.85;11.35;;;;;;;;;;5052253;28;20032;-65
2022/10/09 12:42:56;;;;;;;17.50;10.85;;;;;;;;;;5051756;28;20520;-65
2022/10/09 12:45:23;;;;;;;17.15;10.80;;;;;;;;;;5051616;28;20440;-64
2022/10/09 12:47:50;;;;;;;16.98;11.18;;;;;;;;;;5051028;28;20029;-67
2022/10/09 12:50:16;;;;;;;17.23;11.05;;;;;;;;;;5034244;28;20045;-66
2022/10/09 12:52:49;;;;;;;17.08;11.48;;;;;;;;;;5037757;28;20231;-66
2022/10/09 12:55:22;;;;;;;16.05;11.60;;;;;;;;;;5055335;28;20051;-66
2022/10/09 12:57:48;;;;;;;16.98;11.57;;;;;;;;;;5055749;28;20369;-66
2022/10/09 13:00:14;;;;;;;16.27;11.20;;;;;;;;;;5037666;28;20450;-63
2022/10/09 13:02:40;;;;;;;17.70;11.70;;;;;;;;;;5055655;28;20469;-66
2022/10/09 13:05:08;;;;;;;17.20;12.07;;;;;;;;;;5054835;28;20033;-65
2022/10/09 13:07:34;;;;;;;17.48;11.88;;;;;;;;;;5055478;28;20108;-66
2022/10/09 13:10:07;;;;;;;19.13;12.73;;;;;;;;;;5055181;28;20033;-65
2022/10/09 13:12:34;;;;;;;17.17;11.27;;;;;;;;;;5055070;28;20029;-66
2022/10/09 13:15:07;;;;;;;17.00;11.70;;;;;;;;;;5054875;28;20036;-65
2022/10/09 13:17:35;;;;;;;16.73;11.75;;;;;;;;;;5055219;28;20025;-63
2022/10/09 13:20:03;;;;;;;17.38;11.30;;;;;;;;;;5055210;28;20104;-65
2022/10/09 13:22:29;;;;;;;;;;;;;;;;;;5055454;28;20107;-68
2022/10/09 13:24:56;;;;;;;16.90;11.30;;;;;;;;;;5036992;28;19904;-63
2022/10/09 13:27:25;;;;;;;17.53;11.37;;;;;;;;;;5054612;28;20032;-66
2022/10/09 13:29:51;;;;;;;16.08;10.90;;;;;;;;;;5054730;28;20036;-66
2022/10/09 13:32:18;;;;;;;17.30;11.07;;;;;;;;;;5054794;28;20499;-67
2022/10/09 13:34:44;;;;;;;15.95;11.00;;;;;;;;;;5054565;28;20064;-65
2022/10/09 13:37:14;;;;;;;16.63;11.40;;;;;;;;;;5054649;28;20048;-66
2022/10/09 13:39:40;;;;;;;18.92;11.82;;;;;;;;;;5054939;28;20095;-66
2022/10/09 13:42:06;;;;;;;19.17;11.75;;;;;;;;;;5054603;28;20028;-69
2022/10/09 13:44:32;;;;;;;17.13;11.60;;;;;;;;;;5037997;28;20115;-66
2022/10/09 13:46:58;;;;;;;18.85;11.70;;;;;;;;;;5063778;28;20025;-65
2022/10/09 13:49:24;;;;;;;19.25;11.40;;;;;;;;;;5040059;28;20029;-65
2022/10/09 13:51:50;;;;;;;17.95;11.70;;;;;;;;;;5037287;28;20500;-65
2022/10/09 13:54:16;;;;;;;17.40;10.50;;;;;;;;;;5036344;28;20021;-65
2022/10/09 13:56:42;;;;;;;17.13;11.52;;;;;;;;;;5054041;28;20024;-65
2022/10/09 13:59:08;;;;;;;16.90;11.45;;;;;;;;;;5036619;28;20017;-65
2022/10/09 14:01:34;;;;;;;34.63;30.88;;;;;;;;;;5054189;28;20099;-65
2022/10/09 14:04:00;;;;;;;22.95;19.67;;;;;;;;;;5036102;28;20559;-65
2022/10/09 14:06:27;;;;;;;21.40;16.02;;;;;;;;;;5060622;28;20610;-65
2022/10/09 14:08:53;;;;;;;21.90;17.73;;;;;;;;;;5062602;28;20032;-65
2022/10/09 14:11:19;;;;;;;16.55;10.75;;;;;;;;;;5063106;28;20100;-65
2022/10/09 14:13:45;;;;;;;18.52;11.07;;;;;;;;;;5058728;28;20086;-65
2022/10/09 14:16:11;;;;;;;16.38;10.90;;;;;;;;;;5035514;28;20028;-65
2022/10/09 14:18:37;;;;;;;18.98;13.68;;;;;;;;;;5053756;28;20112;-65
2022/10/09 14:21:10;;;;;;;17.95;11.02;;;;;;;;;;5053574;28;20049;-64
2022/10/09 14:23:36;;;;;;;16.63;11.23;;;;;;;;;;5058822;28;20035;-65
2022/10/09 14:26:03;;;;;;;17.50;12.35;;;;;;;;;;5053648;28;20420;-64
2022/10/09 14:28:30;;;;;;;19.85;11.45;;;;;;;;;;5036005;28;20029;-64